This is the latest recevied weather packets stored in our database for station/object KE5OYL. If no packets are shown the sender has not sent any weather packets the latest 10 day(s).
| Time | Temp. | Humidity | Pressure | Rain* | Wind** | Luminosity | Snow |
|---|---|---|---|---|---|---|---|
| 1777467897 | 16.67° C | 73% | 1015.3 hPa | 0 mm | - | 25 W/m² | - |
| 1777467592 | 16.67° C | 73% | 1015.2 hPa | 0 mm | - | 28 W/m² | - |
| 1777467288 | 16.67° C | 73% | 1015.7 hPa | 0 mm | - | 16 W/m² | - |
| 1777466984 | 16.67° C | 72% | 1015.8 hPa | 0 mm | - | 9 W/m² | - |
| 1777466682 | 17.22° C | 71% | 1015.4 hPa | 0 mm | - | 19 W/m² | - |
| 1777466378 | 17.22° C | 71% | 1015.3 hPa | 0 mm | - | 12 W/m² | - |
| 1777466074 | 17.22° C | 71% | 1015.4 hPa | 0 mm | - | 9 W/m² | - |
| 1777465772 | 17.22° C | 71% | 1015.2 hPa | 0 mm | - | 7 W/m² | - |
| 1777465467 | 17.22° C | 70% | 1014.8 hPa | 0 mm | - | 10 W/m² | - |
| 1777465166 | 17.22° C | 70% | 1015.1 hPa | 0 mm | - | 7 W/m² | - |
| 1777464862 | 17.22° C | 70% | 1015 hPa | 0 mm | - | 6 W/m² | - |
| 1777464557 | 17.78° C | 69% | 1014.8 hPa | 0 mm | - | 6 W/m² | - |
| 1777464254 | 17.78° C | 69% | 1014.6 hPa | 0 mm | - | 5 W/m² | - |
| 1777463949 | 17.22° C | 70% | 1014.7 hPa | 0 mm | - | 4 W/m² | - |
| 1777463644 | 17.22° C | 69% | 1014.5 hPa | 0 mm | - | 2 W/m² | - |
| 1777463339 | 17.22° C | 70% | 1014.2 hPa | 0 mm | - | 1 W/m² | - |
| 1777463036 | 17.78° C | 69% | 1014.6 hPa | 0 mm | - | 1 W/m² | - |
| 1777462731 | 17.78° C | 69% | 1014.7 hPa | 0 mm | - | 0 W/m² | - |
| 1777462426 | 17.78° C | 69% | 1014.5 hPa | 0 mm | - | 0 W/m² | - |
| 1777462124 | 17.78° C | 71% | 1014 hPa | 0 mm | - | 0 W/m² | - |
| 1777461820 | 17.78° C | 71% | 1014.1 hPa | 0 mm | - | 0 W/m² | - |
| 1777461515 | 17.78° C | 71% | 1014 hPa | 0 mm | - | 0 W/m² | - |
| 1777461212 | 17.78° C | 72% | 1014 hPa | 0 mm | - | 0 W/m² | - |
| 1777460907 | 18.33° C | 73% | 1014.3 hPa | 0 mm | - | 0 W/m² | - |
| 1777460603 | 18.33° C | 73% | 1014.2 hPa | 0 mm | - | 0 W/m² | - |
* Rain latest hour (hover to see other rain measurements)
** Current wind speed in m/s (hover to see current wind gust speed)